Time;durP1;ratioP1;P1;durP2;ratioP2;P2;SDS_P1;SDS_P2;PMS_P1;PMS_P2;Temp;Humidity;BMP_temperature;BMP_pressure;BME280_temperature;BME280_humidity;BME280_pressure;Samples;Min_cycle;Max_cycle;Signal;HPM_P1;HPM_P2
2021/05/08 00:02:20;;;;;;;10.15;7.28;;;2.50;99.90;;;;;;5075873;28;20119;-71
2021/05/08 00:04:45;;;;;;;9.93;6.00;;;2.60;99.90;;;;;;5075810;28;20067;-71
2021/05/08 00:07:11;;;;;;;9.85;7.15;;;2.50;99.90;;;;;;5075810;28;20025;-71
2021/05/08 00:09:36;;;;;;;12.35;7.65;;;2.50;99.90;;;;;;5075814;28;20029;-72
2021/05/08 00:12:02;;;;;;;12.25;8.02;;;2.60;99.90;;;;;;5075498;28;20078;-70
2021/05/08 00:14:28;;;;;;;10.73;8.00;;;2.70;99.90;;;;;;5075718;28;20024;-72
2021/05/08 00:16:54;;;;;;;12.63;8.93;;;2.70;99.90;;;;;;5075338;28;20032;-70
2021/05/08 00:19:21;;;;;;;16.70;8.77;;;2.80;99.90;;;;;;5067637;28;20013;-72
2021/05/08 00:21:47;;;;;;;12.65;8.40;;;2.80;99.90;;;;;;5055469;28;20021;-71
2021/05/08 00:24:12;;;;;;;10.48;7.35;;;2.90;99.90;;;;;;5056447;28;20029;-72
2021/05/08 00:26:38;;;;;;;10.52;7.28;;;2.90;99.90;;;;;;5055182;28;20041;-72
2021/05/08 00:29:04;;;;;;;15.23;9.40;;;3.00;99.90;;;;;;5055268;28;20025;-70
2021/05/08 00:31:30;;;;;;;12.90;7.70;;;3.00;99.90;;;;;;5054151;28;20024;-71
2021/05/08 00:33:56;;;;;;;9.07;6.78;;;3.10;99.90;;;;;;5054208;28;20044;-71
2021/05/08 00:36:21;;;;;;;8.77;5.30;;;3.10;99.90;;;;;;5055030;28;20433;-72
2021/05/08 00:38:47;;;;;;;9.82;6.53;;;3.20;99.90;;;;;;5053298;28;20025;-71
2021/05/08 00:41:13;;;;;;;8.50;6.22;;;3.20;99.90;;;;;;5055085;28;20025;-72
2021/05/08 00:43:38;;;;;;;11.25;6.25;;;3.20;99.90;;;;;;5054963;28;20451;-71
2021/05/08 00:46:04;;;;;;;9.65;5.60;;;3.20;99.90;;;;;;5054866;28;20029;-71
2021/05/08 00:48:32;;;;;;;9.40;6.03;;;3.20;99.90;;;;;;5055264;28;20433;-71
2021/05/08 00:50:58;;;;;;;10.77;6.25;;;3.20;99.90;;;;;;5074968;28;20126;-71
2021/05/08 00:53:24;;;;;;;9.90;6.80;;;3.20;99.90;;;;;;5074918;28;20385;-71
2021/05/08 00:55:51;;;;;;;10.38;6.03;;;3.20;99.90;;;;;;5073712;28;20020;-72
2021/05/08 00:58:20;;;;;;;9.40;6.88;;;3.30;99.90;;;;;;5073471;28;20031;-71
2021/05/08 01:00:49;;;;;;;10.20;6.15;;;3.20;99.90;;;;;;5074951;28;20024;-71
2021/05/08 01:03:15;;;;;;;9.80;6.50;;;3.20;99.90;;;;;;5074820;28;20017;-71
2021/05/08 01:05:40;;;;;;;9.35;6.13;;;3.30;99.90;;;;;;5073581;28;20047;-71
2021/05/08 01:08:06;;;;;;;11.80;7.00;;;3.30;99.90;;;;;;5074679;28;20017;-72
2021/05/08 01:10:33;;;;;;;11.55;6.38;;;3.30;99.90;;;;;;5065489;28;20106;-72
2021/05/08 01:13:00;;;;;;;10.88;6.40;;;3.30;99.90;;;;;;5054608;28;20029;-71
2021/05/08 01:15:26;;;;;;;8.00;5.50;;;3.30;99.90;;;;;;5054565;28;20059;-72
2021/05/08 01:17:52;;;;;;;9.90;6.85;;;3.30;99.90;;;;;;5053204;28;20118;-71
2021/05/08 01:20:18;;;;;;;9.07;6.13;;;3.30;99.90;;;;;;5054465;28;20056;-72
2021/05/08 01:22:45;;;;;;;7.05;4.97;;;3.30;99.90;;;;;;5054340;28;20049;-71
2021/05/08 01:25:17;;;;;;;10.15;5.68;;;3.30;99.90;;;;;;5054868;28;20138;-71
2021/05/08 01:28:07;;;;;;;8.73;5.70;;;3.30;99.90;;;;;;5054178;28;20025;-71
2021/05/08 01:30:35;;;;;;;6.75;5.32;;;3.40;99.90;;;;;;5053840;28;20124;-71
2021/05/08 01:33:01;;;;;;;8.82;4.63;;;3.40;99.90;;;;;;5053927;28;20096;-71
2021/05/08 01:35:28;;;;;;;6.70;4.53;;;3.40;99.90;;;;;;5052826;28;20021;-72
2021/05/08 01:37:54;;;;;;;6.10;4.93;;;3.40;99.90;;;;;;5053813;28;20025;-71
2021/05/08 01:40:26;;;;;;;5.20;4.63;;;3.40;99.90;;;;;;5060584;28;20560;-72
2021/05/08 01:42:53;;;;;;;7.68;4.60;;;3.40;99.90;;;;;;5074071;28;20027;-71
2021/05/08 01:45:20;;;;;;;7.95;5.00;;;3.40;99.90;;;;;;5072597;28;20036;-72
2021/05/08 01:47:46;;;;;;;6.35;5.07;;;3.40;99.90;;;;;;5063288;28;20506;-72
2021/05/08 01:50:17;;;;;;;6.07;4.97;;;3.40;99.90;;;;;;5053080;28;20072;-72
2021/05/08 01:52:44;;;;;;;8.68;4.85;;;3.40;99.90;;;;;;5053923;28;20048;-71
2021/05/08 01:55:22;;;;;;;5.20;4.07;;;3.40;99.90;;;;;;5053779;28;20359;-72
2021/05/08 01:57:49;;;;;;;7.43;5.13;;;3.40;99.90;;;;;;5052496;28;20116;-72
2021/05/08 02:00:19;;;;;;;7.38;5.05;;;3.40;99.90;;;;;;5052333;28;20482;-71
2021/05/08 02:02:46;;;;;;;5.10;4.45;;;3.50;99.90;;;;;;5053719;28;20025;-71
2021/05/08 02:05:12;;;;;;;7.25;4.82;;;3.40;99.90;;;;;;5053754;28;20427;-71
2021/05/08 02:07:37;;;;;;;6.07;4.55;;;3.40;99.90;;;;;;5052313;28;20025;-71
2021/05/08 02:10:08;;;;;;;7.32;4.82;;;3.40;99.90;;;;;;5057608;28;20505;-71
2021/05/08 02:12:37;;;;;;;7.47;5.13;;;3.50;99.90;;;;;;5073111;28;20478;-71
2021/05/08 02:15:06;;;;;;;6.78;4.75;;;3.40;99.90;;;;;;5073300;28;20016;-71
2021/05/08 02:17:31;;;;;;;6.35;4.40;;;3.50;99.90;;;;;;5073191;28;20025;-71
2021/05/08 02:19:57;;;;;;;5.97;4.53;;;3.50;99.90;;;;;;5072810;28;20095;-71
2021/05/08 02:22:22;;;;;;;6.90;4.55;;;3.60;99.90;;;;;;5073181;28;20478;-71
2021/05/08 02:24:48;;;;;;;7.75;5.00;;;3.60;99.90;;;;;;5071933;28;20112;-72
2021/05/08 02:27:14;;;;;;;5.00;3.95;;;3.60;99.90;;;;;;5071808;28;20102;-71
2021/05/08 02:29:39;;;;;;;7.82;4.75;;;3.60;99.90;;;;;;5073133;28;20438;-72
2021/05/08 02:32:08;;;;;;;7.15;4.47;;;3.60;99.90;;;;;;5071825;28;20486;-71
2021/05/08 02:34:34;;;;;;;9.25;5.32;;;3.60;99.90;;;;;;5073151;28;20032;-73
2021/05/08 02:37:00;;;;;;;5.90;4.53;;;3.60;99.90;;;;;;5071712;28;20031;-71
2021/05/08 02:39:26;;;;;;;6.72;4.57;;;3.60;99.90;;;;;;5071189;28;20025;-72
2021/05/08 02:41:51;;;;;;;6.97;4.50;;;3.70;99.90;;;;;;5052951;28;20021;-72
2021/05/08 02:44:17;;;;;;;7.55;4.40;;;3.70;99.90;;;;;;5051726;28;20029;-73
2021/05/08 02:46:43;;;;;;;6.30;5.00;;;3.70;99.90;;;;;;5052837;28;20406;-73
2021/05/08 02:49:08;;;;;;;6.50;5.40;;;3.70;99.90;;;;;;5052682;28;20033;-72
2021/05/08 02:51:34;;;;;;;6.25;4.68;;;3.70;99.90;;;;;;5052771;28;20115;-72
2021/05/08 02:54:00;;;;;;;7.07;4.65;;;3.70;99.90;;;;;;5051414;28;20067;-72
2021/05/08 02:56:25;;;;;;;6.47;4.93;;;3.70;99.90;;;;;;5052518;28;20082;-72
2021/05/08 02:58:51;;;;;;;7.93;5.25;;;3.70;99.90;;;;;;5052592;28;20052;-71
2021/05/08 03:01:17;;;;;;;7.43;5.18;;;3.70;99.90;;;;;;5052491;28;20063;-73
2021/05/08 03:03:42;;;;;;;5.88;5.18;;;3.80;99.90;;;;;;5052597;28;20108;-71
2021/05/08 03:06:08;;;;;;;9.32;5.40;;;3.70;99.90;;;;;;5052947;28;20041;-71
2021/05/08 03:08:33;;;;;;;7.15;5.60;;;3.70;99.90;;;;;;5052592;28;20033;-71
2021/05/08 03:10:59;;;;;;;9.38;7.03;;;3.70;99.90;;;;;;5065432;28;20039;-72
2021/05/08 03:13:25;;;;;;;10.10;6.95;;;3.60;99.90;;;;;;5072561;28;20024;-71
2021/05/08 03:15:50;;;;;;;10.60;6.57;;;3.60;99.90;;;;;;5071400;28;20020;-72
2021/05/08 03:18:16;;;;;;;11.55;7.28;;;3.70;99.90;;;;;;5072496;28;20099;-71
2021/05/08 03:20:41;;;;;;;10.82;8.00;;;3.60;99.90;;;;;;5072700;28;20048;-71
2021/05/08 03:23:07;;;;;;;9.57;7.10;;;3.60;99.90;;;;;;5072575;28;20527;-71
2021/05/08 03:25:33;;;;;;;10.10;7.30;;;3.60;99.90;;;;;;5072538;28;20132;-71
2021/05/08 03:27:58;;;;;;;11.93;8.75;;;3.60;99.90;;;;;;5072529;28;20032;-71
2021/05/08 03:30:24;;;;;;;10.32;7.50;;;3.60;99.90;;;;;;5058602;28;20029;-72
2021/05/08 03:32:50;;;;;;;13.30;7.50;;;3.60;99.90;;;;;;5052327;28;20071;-71
2021/05/08 03:35:15;;;;;;;12.02;7.75;;;3.60;99.90;;;;;;5052406;28;20052;-72
2021/05/08 03:37:41;;;;;;;10.77;7.97;;;3.60;99.90;;;;;;5052309;28;20021;-71
2021/05/08 03:40:07;;;;;;;11.93;7.53;;;3.60;99.90;;;;;;5058492;28;20021;-72
2021/05/08 03:42:33;;;;;;;12.48;8.43;;;3.70;99.90;;;;;;5063640;28;20364;-71
2021/05/08 03:44:59;;;;;;;11.55;7.55;;;3.70;99.90;;;;;;5053065;28;20033;-72
2021/05/08 03:47:24;;;;;;;11.77;7.18;;;3.60;99.90;;;;;;5070025;28;20043;-71
2021/05/08 03:49:50;;;;;;;8.23;6.68;;;3.60;99.90;;;;;;5058139;28;20025;-72
2021/05/08 03:52:15;;;;;;;9.40;6.82;;;3.60;99.90;;;;;;5052178;28;20100;-71
2021/05/08 03:54:41;;;;;;;10.13;6.85;;;3.60;99.90;;;;;;5052310;28;20215;-71
2021/05/08 03:57:07;;;;;;;12.30;7.47;;;3.70;99.90;;;;;;5052131;28;20025;-71
2021/05/08 03:59:33;;;;;;;10.75;6.90;;;3.60;99.90;;;;;;5050958;28;20367;-71
2021/05/08 04:01:58;;;;;;;11.95;7.57;;;3.60;99.90;;;;;;5052164;28;20044;-71
2021/05/08 04:04:24;;;;;;;12.00;7.07;;;3.70;99.90;;;;;;5052235;28;20060;-71
2021/05/08 04:06:50;;;;;;;11.02;6.90;;;3.70;99.90;;;;;;5053107;28;20482;-71
2021/05/08 04:09:16;;;;;;;11.45;7.40;;;3.70;99.90;;;;;;5050814;28;20387;-71
2021/05/08 04:11:42;;;;;;;10.13;7.05;;;3.70;99.90;;;;;;5052107;28;20100;-73
2021/05/08 04:14:07;;;;;;;10.85;7.40;;;3.70;99.90;;;;;;5055165;28;20033;-71
2021/05/08 04:16:33;;;;;;;9.38;6.97;;;3.70;99.90;;;;;;5055666;28;20056;-72
2021/05/08 04:19:01;;;;;;;11.38;7.28;;;3.70;99.90;;;;;;5055608;28;20024;-70
2021/05/08 04:21:26;;;;;;;9.85;7.68;;;3.70;99.90;;;;;;5055591;28;20497;-71
2021/05/08 04:23:52;;;;;;;10.05;7.43;;;3.60;99.90;;;;;;5054227;28;20028;-71
2021/05/08 04:26:18;;;;;;;11.90;7.80;;;3.70;99.90;;;;;;5054062;28;20195;-72
2021/05/08 04:28:43;;;;;;;12.90;7.13;;;3.70;99.90;;;;;;5056972;28;20488;-71
2021/05/08 04:31:09;;;;;;;15.10;7.53;;;3.70;99.90;;;;;;5075348;28;20096;-72
2021/05/08 04:33:35;;;;;;;9.88;7.25;;;3.80;99.90;;;;;;5073961;28;20040;-71
2021/05/08 04:36:00;;;;;;;9.57;7.07;;;3.70;99.90;;;;;;5075205;28;20105;-71
2021/05/08 04:38:26;;;;;;;13.63;8.00;;;3.80;99.90;;;;;;5075185;28;20021;-71
2021/05/08 04:40:53;;;;;;;18.08;8.40;;;3.90;99.90;;;;;;5075268;28;20021;-72
2021/05/08 04:43:19;;;;;;;175.57;67.90;;;3.90;99.90;;;;;;5073875;28;20382;-70
2021/05/08 04:45:46;;;;;;;20.65;13.40;;;4.00;99.90;;;;;;5075137;28;20028;-73
2021/05/08 04:48:11;;;;;;;18.13;10.38;;;4.20;99.90;;;;;;5075012;28;20024;-71
2021/05/08 04:50:37;;;;;;;245.93;105.53;;;4.30;99.90;;;;;;5057106;28;20120;-72
2021/05/08 04:53:03;;;;;;;55.78;30.73;;;4.50;99.90;;;;;;5054856;28;20467;-71
2021/05/08 04:55:28;;;;;;;14.77;9.65;;;4.40;99.90;;;;;;5058301;28;20445;-72
2021/05/08 04:57:54;;;;;;;114.53;50.35;;;4.50;99.90;;;;;;5075047;28;20020;-71
2021/05/08 05:00:19;;;;;;;37.85;19.35;;;4.60;99.90;;;;;;5074890;28;20107;-72
2021/05/08 05:02:46;;;;;;;138.13;59.70;;;4.60;99.90;;;;;;5075182;28;20124;-71
2021/05/08 05:05:13;;;;;;;43.58;20.15;;;4.80;99.90;;;;;;5074978;28;20025;-71
2021/05/08 05:07:43;;;;;;;11.80;7.55;;;4.90;99.90;;;;;;5074664;28;20024;-70
2021/05/08 05:10:12;;;;;;;15.50;9.73;;;4.90;99.90;;;;;;5073440;28;20539;-71
2021/05/08 05:12:38;;;;;;;15.60;9.15;;;4.80;99.90;;;;;;5066257;28;20025;-71
2021/05/08 05:15:05;;;;;;;12.98;7.50;;;4.90;99.90;;;;;;5060902;28;20071;-71
2021/05/08 05:17:31;;;;;;;12.23;6.88;;;4.80;99.90;;;;;;5061015;28;20028;-71
2021/05/08 05:19:56;;;;;;;15.13;8.93;;;4.80;99.90;;;;;;5063930;28;20028;-72
2021/05/08 05:22:22;;;;;;;9.38;6.50;;;4.80;99.90;;;;;;5063914;28;20037;-71
2021/05/08 05:24:47;;;;;;;9.77;6.82;;;4.70;99.90;;;;;;5062068;28;20034;-72
2021/05/08 05:27:13;;;;;;;38.65;19.58;;;4.70;99.90;;;;;;5060048;28;20013;-71
2021/05/08 05:29:39;;;;;;;20.17;11.93;;;4.70;99.90;;;;;;5067753;28;20367;-72
2021/05/08 05:32:05;;;;;;;14.40;8.18;;;4.80;99.90;;;;;;5064904;28;20029;-70
2021/05/08 05:34:31;;;;;;;10.63;6.97;;;4.90;99.90;;;;;;5072830;28;20108;-71
2021/05/08 05:36:56;;;;;;;8.00;6.32;;;5.10;99.90;;;;;;5074134;28;20487;-71
2021/05/08 05:39:22;;;;;;;11.73;7.97;;;5.20;99.90;;;;;;5072713;28;20351;-72
2021/05/08 05:41:47;;;;;;;9.15;6.38;;;5.20;97.40;;;;;;5074003;28;20481;-70
2021/05/08 05:44:13;;;;;;;21.70;11.73;;;5.30;99.60;;;;;;5068865;28;20107;-71
2021/05/08 05:46:39;;;;;;;20.00;11.60;;;5.40;99.90;;;;;;5061874;28;20043;-71
2021/05/08 05:49:04;;;;;;;9.82;6.35;;;5.40;96.90;;;;;;5071004;28;20470;-71
2021/05/08 05:51:30;;;;;;;16.27;10.05;;;5.40;94.40;;;;;;5070443;28;20482;-73
2021/05/08 05:53:56;;;;;;;14.05;8.15;;;5.70;97.80;;;;;;5053778;28;20122;-72
2021/05/08 05:56:26;;;;;;;7.38;5.25;;;5.80;94.80;;;;;;5066069;28;20524;-72
2021/05/08 05:58:52;;;;;;;12.35;5.50;;;5.80;92.50;;;;;;5065458;28;20012;-71
2021/05/08 06:01:17;;;;;;;9.05;5.75;;;5.80;92.10;;;;;;5072981;28;20024;-71
2021/05/08 06:03:43;;;;;;;19.52;11.90;;;5.80;89.90;;;;;;5067565;28;20548;-70
2021/05/08 06:06:09;;;;;;;8.70;5.53;;;5.90;92.90;;;;;;5053290;28;20498;-71
2021/05/08 06:08:35;;;;;;;12.13;6.53;;;5.90;90.10;;;;;;5052333;28;20017;-71
2021/05/08 06:11:00;;;;;;;12.57;6.85;;;5.90;90.00;;;;;;5052206;28;20102;-71
2021/05/08 06:13:27;;;;;;;10.43;6.13;;;6.00;87.20;;;;;;5053320;28;20029;-72
2021/05/08 06:15:52;;;;;;;13.05;7.00;;;6.10;88.50;;;;;;5053476;28;20048;-72
2021/05/08 06:18:18;;;;;;;8.23;5.80;;;6.20;88.20;;;;;;5053333;28;20064;-71
2021/05/08 06:20:44;;;;;;;11.70;7.22;;;6.30;88.50;;;;;;5052109;28;20028;-73
2021/05/08 06:23:10;;;;;;;8.13;5.28;;;6.30;84.40;;;;;;5059219;28;20362;-72
2021/05/08 06:25:36;;;;;;;10.57;5.10;;;6.30;84.10;;;;;;5067631;28;20466;-72
2021/05/08 06:28:01;;;;;;;6.30;4.47;;;6.60;82.30;;;;;;5072311;28;20028;-72
2021/05/08 06:30:27;;;;;;;5.90;4.57;;;6.70;79.70;;;;;;5070072;28;20031;-72
2021/05/08 06:32:53;;;;;;;6.90;4.10;;;6.70;78.80;;;;;;5070739;28;20020;-71
2021/05/08 06:35:18;;;;;;;5.20;4.40;;;6.90;78.80;;;;;;5070673;28;20020;-71
2021/05/08 06:37:51;;;;;;;8.90;4.63;;;7.10;77.50;;;;;;5071042;28;20467;-71
2021/05/08 06:40:17;;;;;;;6.90;4.43;;;7.30;77.20;;;;;;5073063;28;20016;-71
2021/05/08 06:42:43;;;;;;;6.38;4.57;;;7.50;75.60;;;;;;5072946;28;20029;-71
2021/05/08 06:45:09;;;;;;;6.70;4.32;;;7.80;72.70;;;;;;5064815;28;20540;-71
2021/05/08 06:47:35;;;;;;;5.47;3.75;;;7.70;68.90;;;;;;5051437;28;20039;-71
2021/05/08 06:50:00;;;;;;;4.43;3.60;;;7.70;72.50;;;;;;5072114;28;20021;-71
2021/05/08 06:52:26;;;;;;;5.35;4.43;;;7.70;71.90;;;;;;5072133;28;20108;-71
2021/05/08 06:54:52;;;;;;;13.85;5.75;;;7.80;71.90;;;;;;5068607;28;20283;-72
2021/05/08 06:57:17;;;;;;;6.30;4.00;;;7.60;70.60;;;;;;5065170;28;20021;-71
2021/05/08 06:59:43;;;;;;;8.18;4.45;;;7.60;70.80;;;;;;5070720;28;20017;-72
2021/05/08 07:02:09;;;;;;;6.72;4.38;;;7.70;71.60;;;;;;5065164;28;20428;-71
2021/05/08 07:04:35;;;;;;;4.60;4.00;;;7.70;70.70;;;;;;5052031;28;20075;-71
2021/05/08 07:07:00;;;;;;;9.25;4.70;;;7.80;71.30;;;;;;5052064;28;20375;-71
2021/05/08 07:09:26;;;;;;;9.50;5.22;;;8.10;69.40;;;;;;5052220;28;20033;-73
2021/05/08 07:11:52;;;;;;;9.30;5.38;;;8.20;68.30;;;;;;5052535;28;20032;-71
2021/05/08 07:14:18;;;;;;;9.00;5.78;;;8.30;70.80;;;;;;5052609;28;20104;-71
2021/05/08 07:16:43;;;;;;;5.93;5.30;;;8.50;70.80;;;;;;5052539;28;20095;-72
2021/05/08 07:19:10;;;;;;;5.93;4.63;;;8.80;69.60;;;;;;5052078;28;20053;-71
2021/05/08 07:21:36;;;;;;;6.97;4.82;;;9.00;70.50;;;;;;5051270;28;20496;-72
2021/05/08 07:24:01;;;;;;;26.25;23.48;;;8.90;68.20;;;;;;5052411;28;20421;-71
2021/05/08 07:26:27;;;;;;;14.00;10.85;;;8.40;65.20;;;;;;5052356;28;20036;-71
2021/05/08 07:28:53;;;;;;;20.38;12.77;;;8.10;66.00;;;;;;5051096;28;20060;-71
2021/05/08 07:31:18;;;;;;;6.07;4.38;;;7.80;66.80;;;;;;5050977;28;20025;-72
2021/05/08 07:33:44;;;;;;;8.93;4.97;;;7.70;68.80;;;;;;5052538;28;20037;-71
2021/05/08 07:36:10;;;;;;;10.63;6.13;;;7.60;70.40;;;;;;5054633;28;20413;-72
2021/05/08 07:38:35;;;;;;;6.22;4.47;;;7.50;71.40;;;;;;5069647;28;20482;-71
2021/05/08 07:41:01;;;;;;;9.45;7.35;;;7.60;70.40;;;;;;5072454;28;20024;-71
2021/05/08 07:43:26;;;;;;;10.80;6.03;;;7.90;70.90;;;;;;5072223;28;20063;-71
2021/05/08 07:45:53;;;;;;;11.68;5.30;;;8.40;72.20;;;;;;5072268;28;20034;-73
2021/05/08 07:48:19;;;;;;;5.88;4.10;;;8.70;68.90;;;;;;5074221;28;20367;-71
2021/05/08 07:50:44;;;;;;;9.32;4.38;;;8.90;67.70;;;;;;5076154;28;20028;-72
2021/05/08 07:53:10;;;;;;;4.82;4.15;;;9.10;64.80;;;;;;5076026;28;20024;-71
2021/05/08 07:55:36;;;;;;;5.43;4.07;;;9.00;65.70;;;;;;5076027;28;20078;-72
2021/05/08 07:58:05;;;;;;;3.88;3.15;;;9.00;64.40;;;;;;5075965;28;20021;-71
2021/05/08 08:00:32;;;;;;;6.40;3.67;;;9.40;65.40;;;;;;5074693;28;20486;-72
2021/05/08 08:02:57;;;;;;;7.82;4.80;;;9.60;63.90;;;;;;5075020;28;20032;-71
2021/05/08 08:05:23;;;;;;;9.02;4.50;;;9.40;61.70;;;;;;5075698;28;20509;-71
2021/05/08 08:07:49;;;;;;;3.30;3.00;;;9.30;60.20;;;;;;5074142;28;20020;-72
2021/05/08 08:10:15;;;;;;;3.35;3.00;;;9.20;59.50;;;;;;5074554;28;20136;-72
2021/05/08 08:12:41;;;;;;;6.78;4.10;;;8.90;61.10;;;;;;5074702;28;20489;-72
2021/05/08 08:15:09;;;;;;;19.02;9.07;;;8.50;61.30;;;;;;5075640;28;20029;-72
2021/05/08 08:17:35;;;;;;;23.98;8.50;;;8.20;60.70;;;;;;5058619;28;20025;-71
2021/05/08 08:20:07;;;;;;;6.10;3.22;;;7.90;62.00;;;;;;5055397;28;20108;-72
2021/05/08 08:22:32;;;;;;;2.08;1.98;;;7.70;62.10;;;;;;5054350;28;20432;-71
2021/05/08 08:24:58;;;;;;;21.70;10.45;;;7.50;64.50;;;;;;5074164;28;20115;-72
2021/05/08 08:27:25;;;;;;;18.25;10.63;;;7.40;67.60;;;;;;5075434;28;20105;-71
2021/05/08 08:29:50;;;;;;;6.25;4.32;;;7.50;71.80;;;;;;5075541;28;20029;-72
2021/05/08 08:32:16;;;;;;;3.72;3.33;;;7.40;69.80;;;;;;5075173;28;20580;-71
2021/05/08 08:34:42;;;;;;;10.48;4.85;;;7.40;68.90;;;;;;5074116;28;20420;-72
2021/05/08 08:37:08;;;;;;;9.73;5.72;;;7.60;71.70;;;;;;5074975;28;20056;-71
2021/05/08 08:39:34;;;;;;;6.47;4.93;;;8.10;75.40;;;;;;5075315;28;20028;-71
2021/05/08 08:42:02;;;;;;;5.43;4.55;;;8.40;75.80;;;;;;5075278;28;20028;-71
2021/05/08 08:44:28;;;;;;;7.45;4.60;;;8.60;72.50;;;;;;5075245;28;20024;-72
2021/05/08 08:46:54;;;;;;;6.80;4.07;;;8.70;68.30;;;;;;5075085;28;20553;-71
2021/05/08 08:49:22;;;;;;;4.65;3.40;;;8.80;70.40;;;;;;5075196;28;20024;-71
2021/05/08 08:51:48;;;;;;;3.90;3.45;;;8.80;67.80;;;;;;5074995;28;20486;-72
2021/05/08 08:54:14;;;;;;;7.40;5.18;;;8.80;67.50;;;;;;5065241;28;20063;-72
2021/05/08 08:56:43;;;;;;;7.50;5.55;;;8.70;63.80;;;;;;5056046;28;20104;-72
2021/05/08 08:59:25;;;;;;;6.40;5.43;;;8.70;62.90;;;;;;5054528;28;20056;-71
2021/05/08 09:01:51;;;;;;;17.27;8.83;;;8.70;63.20;;;;;;5054973;28;20023;-71
2021/05/08 09:04:17;;;;;;;7.50;5.50;;;8.50;63.20;;;;;;5053447;28;20777;-71
2021/05/08 09:06:46;;;;;;;12.05;7.30;;;8.40;68.30;;;;;;5054834;28;20398;-71
2021/05/08 09:09:13;;;;;;;4.60;2.90;;;8.00;67.40;;;;;;5053767;28;20063;-71
2021/05/08 09:12:11;;;;;;;5.57;4.32;;;7.50;72.20;;;;;;5054659;28;20037;-71
2021/05/08 09:14:36;;;;;;;14.25;5.32;;;7.00;78.70;;;;;;5054478;28;20128;-70
2021/05/08 09:17:07;;;;;;;6.43;4.82;;;6.60;82.70;;;;;;5054615;28;20080;-70
2021/05/08 09:19:38;;;;;;;9.52;7.82;;;6.50;90.30;;;;;;5054582;28;20100;-71
2021/05/08 09:22:27;;;;;;;8.43;6.63;;;6.60;93.10;;;;;;5054405;28;20020;-70
2021/05/08 09:25:04;;;;;;;7.47;5.03;;;6.70;93.10;;;;;;5053276;28;20118;-70
2021/05/08 09:27:48;;;;;;;5.30;4.80;;;6.70;91.70;;;;;;5054418;28;20104;-71
2021/05/08 09:30:19;;;;;;;8.32;6.75;;;6.90;84.00;;;;;;5053768;28;20051;-70
2021/05/08 09:32:46;;;;;;;5.50;5.00;;;7.10;86.90;;;;;;5052871;28;20135;-70
2021/05/08 09:35:22;;;;;;;6.93;5.18;;;7.30;78.60;;;;;;5052943;28;20025;-71
2021/05/08 09:37:50;;;;;;;16.98;9.05;;;7.60;74.90;;;;;;5054232;28;20471;-70
2021/05/08 09:40:17;;;;;;;6.38;5.18;;;8.10;77.50;;;;;;5052763;28;20112;-71
2021/05/08 09:42:47;;;;;;;4.85;4.40;;;8.50;74.60;;;;;;5054005;28;20100;-71
2021/05/08 09:45:14;;;;;;;7.05;5.70;;;8.50;68.30;;;;;;5057284;28;20036;-71
2021/05/08 09:47:40;;;;;;;6.80;5.38;;;8.50;70.60;;;;;;5056895;28;20077;-71
2021/05/08 09:50:06;;;;;;;17.77;8.07;;;8.60;67.50;;;;;;5060979;28;20026;-72
2021/05/08 09:52:48;;;;;;;17.20;9.30;;;8.90;68.50;;;;;;5061014;28;20462;-71
2021/05/08 09:55:15;;;;;;;7.18;5.05;;;9.00;72.50;;;;;;5068964;28;20024;-71
2021/05/08 09:57:53;;;;;;;27.10;12.77;;;8.90;68.60;;;;;;5073698;28;20039;-71
2021/05/08 10:00:30;;;;;;;23.77;10.77;;;8.90;69.60;;;;;;5073708;28;20051;-71
2021/05/08 10:03:12;;;;;;;14.35;7.88;;;9.00;68.50;;;;;;5073703;28;20021;-71
2021/05/08 10:05:46;;;;;;;16.88;9.52;;;8.90;62.50;;;;;;5072401;28;20423;-71
2021/05/08 10:08:12;;;;;;;11.00;5.90;;;9.10;64.10;;;;;;5073578;28;20021;-71
2021/05/08 10:10:37;;;;;;;15.57;7.55;;;9.10;59.30;;;;;;5072881;28;20505;-72
2021/05/08 10:13:11;;;;;;;9.52;6.05;;;9.20;62.20;;;;;;5072137;28;20115;-71
2021/05/08 10:15:40;;;;;;;5.68;4.13;;;9.30;60.30;;;;;;5072178;28;20425;-71
2021/05/08 10:18:10;;;;;;;13.05;6.00;;;9.60;57.00;;;;;;5073281;28;20047;-71
2021/05/08 10:20:38;;;;;;;8.45;5.35;;;9.90;60.30;;;;;;5073241;28;20056;-71
2021/05/08 10:23:10;;;;;;;10.93;5.68;;;10.20;58.30;;;;;;5072237;28;20098;-71
2021/05/08 10:25:37;;;;;;;9.50;5.30;;;10.30;58.70;;;;;;5071912;28;20040;-71
2021/05/08 10:28:04;;;;;;;18.05;7.72;;;10.30;58.90;;;;;;5071055;28;20036;-71
2021/05/08 10:30:34;;;;;;;39.33;13.32;;;10.20;57.30;;;;;;5073153;28;20020;-71
2021/05/08 10:33:05;;;;;;;18.58;9.02;;;10.20;57.10;;;;;;5072177;28;20032;-71
2021/05/08 10:35:41;;;;;;;20.73;7.88;;;10.20;56.90;;;;;;5073257;28;20024;-71
2021/05/08 10:40:55;;;;;;;16.58;9.18;;;10.50;58.10;;;;;;5073452;28;20486;-71
2021/05/08 10:43:56;;;;;;;19.38;9.50;;;10.80;55.90;;;;;;5071491;28;20033;-71
2021/05/08 10:46:24;;;;;;;34.55;16.50;;;10.80;53.10;;;;;;5068350;28;20052;-71
2021/05/08 10:49:06;;;;;;;9.00;6.35;;;11.10;53.90;;;;;;5072409;28;20501;-71
2021/05/08 10:51:53;;;;;;;12.45;11.15;;;11.20;51.40;;;;;;5063549;28;20021;-72
2021/05/08 10:54:42;;;;;;;6.03;4.00;;;11.20;50.50;;;;;;5052496;28;20056;-72
2021/05/08 10:57:24;;;;;;;10.20;8.77;;;11.50;52.20;;;;;;5052792;28;20021;-71
2021/05/08 11:00:06;;;;;;;11.90;9.52;;;11.60;51.20;;;;;;5051647;28;20417;-72
2021/05/08 11:02:41;;;;;;;13.80;12.45;;;11.50;48.80;;;;;;5052815;28;20107;-71
2021/05/08 11:05:21;;;;;;;9.48;8.55;;;11.50;48.10;;;;;;5051299;28;20075;-72
2021/05/08 11:07:47;;;;;;;3.83;3.35;;;11.50;50.20;;;;;;5052645;28;20048;-72
2021/05/08 11:10:31;;;;;;;7.18;5.55;;;11.30;49.70;;;;;;5052662;28;20194;-72
2021/05/08 11:13:10;;;;;;;7.00;4.85;;;11.30;50.00;;;;;;5052644;28;20359;-71
2021/05/08 11:15:54;;;;;;;10.95;9.30;;;11.00;50.80;;;;;;5052671;28;20098;-71
2021/05/08 11:18:32;;;;;;;13.15;11.45;;;11.00;51.50;;;;;;5052528;28;20021;-71
2021/05/08 11:21:03;;;;;;;18.27;13.27;;;11.50;52.50;;;;;;5052592;28;20029;-72
2021/05/08 11:23:51;;;;;;;8.60;7.53;;;11.80;50.20;;;;;;5056708;28;20053;-71
2021/05/08 11:26:24;;;;;;;5.60;4.65;;;12.10;47.70;;;;;;5056602;28;20072;-72
2021/05/08 11:29:18;;;;;;;5.20;4.68;;;12.10;45.90;;;;;;5056576;28;20039;-72
2021/05/08 11:31:50;;;;;;;5.90;4.57;;;12.00;43.70;;;;;;5056687;28;20382;-72
2021/05/08 11:34:22;;;;;;;7.43;4.70;;;11.90;44.60;;;;;;5055525;28;20036;-72
2021/05/08 11:36:52;;;;;;;8.65;5.22;;;12.00;43.80;;;;;;5056368;28;20021;-71
2021/05/08 11:39:43;;;;;;;6.95;6.25;;;12.10;43.60;;;;;;5056087;28;20475;-71
2021/05/08 11:42:19;;;;;;;9.73;7.35;;;11.90;43.40;;;;;;5071772;28;20385;-71
2021/05/08 11:44:47;;;;;;;6.07;4.30;;;11.70;44.20;;;;;;5056312;28;20025;-72
2021/05/08 11:47:34;;;;;;;6.13;3.28;;;11.90;45.30;;;;;;5056193;28;20036;-72
2021/05/08 11:50:05;;;;;;;3.78;3.15;;;12.00;45.60;;;;;;5067517;28;20483;-72
2021/05/08 11:52:39;;;;;;;3.35;3.05;;;12.30;45.10;;;;;;5068248;28;20032;-71
2021/05/08 11:55:16;;;;;;;11.65;7.30;;;12.50;44.90;;;;;;5074811;28;20413;-72
2021/05/08 11:57:46;;;;;;;3.53;3.10;;;12.40;43.10;;;;;;5065869;28;20025;-71
2021/05/08 12:00:20;;;;;;;3.28;2.95;;;12.20;40.60;;;;;;5062880;28;20021;-72
2021/05/08 12:02:47;;;;;;;4.10;2.92;;;12.20;42.60;;;;;;5058578;28;20394;-71
2021/05/08 12:05:13;;;;;;;7.28;4.32;;;12.10;42.40;;;;;;5059204;28;20040;-73
2021/05/08 12:07:44;;;;;;;6.35;3.13;;;12.00;41.40;;;;;;5064420;28;20024;-72
2021/05/08 12:10:21;;;;;;;7.68;4.57;;;12.00;40.40;;;;;;5075490;28;20025;-73
2021/05/08 12:12:51;;;;;;;3.33;2.83;;;11.90;40.30;;;;;;5075483;28;20036;-73
2021/05/08 12:15:29;;;;;;;3.75;2.28;;;11.90;41.30;;;;;;5073318;28;20082;-73
2021/05/08 12:17:59;;;;;;;3.72;2.40;;;11.80;42.10;;;;;;5074243;28;20481;-71
2021/05/08 12:20:30;;;;;;;4.32;3.40;;;12.10;43.30;;;;;;5058526;28;20167;-72
2021/05/08 12:23:00;;;;;;;9.23;4.70;;;12.40;43.60;;;;;;5063762;28;20029;-72
2021/05/08 12:25:26;;;;;;;3.40;2.80;;;12.20;42.10;;;;;;5059543;28;20403;-72
2021/05/08 12:28:21;;;;;;;4.65;4.25;;;12.20;41.20;;;;;;5055359;28;20398;-72
2021/05/08 12:30:48;;;;;;;4.15;3.80;;;12.20;41.70;;;;;;5054023;28;20032;-72
2021/05/08 12:33:22;;;;;;;5.47;4.00;;;12.30;41.50;;;;;;5061486;28;20488;-72
2021/05/08 12:35:49;;;;;;;4.00;2.25;;;12.40;41.40;;;;;;5060277;28;20017;-73
2021/05/08 12:38:21;;;;;;;3.25;2.95;;;12.50;41.00;;;;;;5060402;28;20119;-72
2021/05/08 12:40:49;;;;;;;3.20;2.65;;;12.90;42.50;;;;;;5059772;28;20025;-73
2021/05/08 12:43:28;;;;;;;4.00;2.45;;;12.80;41.00;;;;;;5059490;28;20552;-73
2021/05/08 12:46:00;;;;;;;2.85;2.63;;;12.70;40.90;;;;;;5062888;28;20476;-72
2021/05/08 12:48:27;;;;;;;2.75;2.15;;;12.80;39.70;;;;;;5060614;28;20085;-72
2021/05/08 12:50:53;;;;;;;3.00;2.50;;;12.90;39.60;;;;;;5077778;28;20374;-73
2021/05/08 12:53:21;;;;;;;2.40;1.95;;;12.90;40.60;;;;;;5059305;28;20024;-72
2021/05/08 12:56:03;;;;;;;2.25;2.10;;;12.80;38.20;;;;;;5045149;28;20040;-72
2021/05/08 12:58:39;;;;;;;5.13;2.72;;;12.80;37.20;;;;;;5062219;28;20051;-72
2021/05/08 13:01:06;;;;;;;5.25;3.58;;;12.70;38.50;;;;;;5063557;28;20018;-73